sensor_id;sensor_type;location;lat;lon;timestamp;P1;durP1;ratioP1;P2;durP2;ratioP2
20657;SDS011;10488;50.846;4.078;2023-07-24T00:00:33;12.80;;;4.40;;
20657;SDS011;10488;50.846;4.078;2023-07-24T00:03:00;8.13;;;3.97;;
20657;SDS011;10488;50.846;4.078;2023-07-24T00:05:26;6.97;;;4.43;;
20657;SDS011;10488;50.846;4.078;2023-07-24T00:07:52;9.10;;;4.75;;
20657;SDS011;10488;50.846;4.078;2023-07-24T00:10:18;9.20;;;4.50;;
20657;SDS011;10488;50.846;4.078;2023-07-24T00:12:43;8.77;;;4.45;;
20657;SDS011;10488;50.846;4.078;2023-07-24T00:15:09;8.32;;;3.60;;
20657;SDS011;10488;50.846;4.078;2023-07-24T00:17:35;9.98;;;4.07;;
20657;SDS011;10488;50.846;4.078;2023-07-24T00:20:00;10.82;;;4.18;;
20657;SDS011;10488;50.846;4.078;2023-07-24T00:22:26;8.38;;;4.82;;
20657;SDS011;10488;50.846;4.078;2023-07-24T00:24:51;7.75;;;4.35;;
20657;SDS011;10488;50.846;4.078;2023-07-24T00:27:17;10.35;;;4.95;;
20657;SDS011;10488;50.846;4.078;2023-07-24T00:29:43;8.85;;;4.88;;
20657;SDS011;10488;50.846;4.078;2023-07-24T00:32:08;8.82;;;4.65;;
20657;SDS011;10488;50.846;4.078;2023-07-24T00:34:34;11.07;;;4.97;;
20657;SDS011;10488;50.846;4.078;2023-07-24T00:37:00;8.00;;;4.28;;
20657;SDS011;10488;50.846;4.078;2023-07-24T00:39:25;5.70;;;3.85;;
20657;SDS011;10488;50.846;4.078;2023-07-24T00:41:53;7.10;;;4.35;;
20657;SDS011;10488;50.846;4.078;2023-07-24T00:44:19;7.53;;;3.50;;
20657;SDS011;10488;50.846;4.078;2023-07-24T00:46:45;5.15;;;3.40;;
20657;SDS011;10488;50.846;4.078;2023-07-24T00:49:11;6.30;;;3.35;;
20657;SDS011;10488;50.846;4.078;2023-07-24T00:51:37;5.13;;;3.10;;
20657;SDS011;10488;50.846;4.078;2023-07-24T00:54:03;6.38;;;3.30;;
20657;SDS011;10488;50.846;4.078;2023-07-24T00:56:30;5.60;;;3.30;;
20657;SDS011;10488;50.846;4.078;2023-07-24T00:58:57;7.65;;;3.72;;
20657;SDS011;10488;50.846;4.078;2023-07-24T01:01:24;5.70;;;3.40;;
20657;SDS011;10488;50.846;4.078;2023-07-24T01:03:51;8.13;;;3.80;;
20657;SDS011;10488;50.846;4.078;2023-07-24T01:06:17;7.13;;;5.03;;
20657;SDS011;10488;50.846;4.078;2023-07-24T01:08:43;7.60;;;3.63;;
20657;SDS011;10488;50.846;4.078;2023-07-24T01:11:15;4.45;;;3.40;;
20657;SDS011;10488;50.846;4.078;2023-07-24T01:13:56;2.72;;;2.17;;
20657;SDS011;10488;50.846;4.078;2023-07-24T01:16:23;4.75;;;2.28;;
20657;SDS011;10488;50.846;4.078;2023-07-24T01:18:56;6.45;;;2.22;;
20657;SDS011;10488;50.846;4.078;2023-07-24T01:21:25;4.32;;;2.05;;
20657;SDS011;10488;50.846;4.078;2023-07-24T01:23:59;2.97;;;1.67;;
20657;SDS011;10488;50.846;4.078;2023-07-24T01:26:47;1.85;;;1.38;;
20657;SDS011;10488;50.846;4.078;2023-07-24T01:29:13;3.70;;;1.58;;
20657;SDS011;10488;50.846;4.078;2023-07-24T01:31:38;5.43;;;1.25;;
20657;SDS011;10488;50.846;4.078;2023-07-24T01:34:04;1.75;;;1.27;;
20657;SDS011;10488;50.846;4.078;2023-07-24T01:36:29;3.72;;;1.15;;
20657;SDS011;10488;50.846;4.078;2023-07-24T01:38:55;1.92;;;1.20;;
20657;SDS011;10488;50.846;4.078;2023-07-24T01:41:21;1.30;;;1.20;;
20657;SDS011;10488;50.846;4.078;2023-07-24T01:43:47;2.60;;;1.25;;
20657;SDS011;10488;50.846;4.078;2023-07-24T01:46:13;2.15;;;1.05;;
20657;SDS011;10488;50.846;4.078;2023-07-24T01:48:39;3.58;;;1.20;;
20657;SDS011;10488;50.846;4.078;2023-07-24T01:51:05;3.42;;;1.67;;
20657;SDS011;10488;50.846;4.078;2023-07-24T01:53:31;2.70;;;1.67;;
20657;SDS011;10488;50.846;4.078;2023-07-24T01:55:57;2.67;;;1.52;;
20657;SDS011;10488;50.846;4.078;2023-07-24T01:58:23;2.25;;;1.20;;
20657;SDS011;10488;50.846;4.078;2023-07-24T02:00:49;2.55;;;1.25;;
20657;SDS011;10488;50.846;4.078;2023-07-24T02:03:14;3.58;;;1.30;;
20657;SDS011;10488;50.846;4.078;2023-07-24T02:05:40;1.33;;;1.23;;
20657;SDS011;10488;50.846;4.078;2023-07-24T02:08:06;2.15;;;1.27;;
20657;SDS011;10488;50.846;4.078;2023-07-24T02:10:31;2.05;;;1.05;;
20657;SDS011;10488;50.846;4.078;2023-07-24T02:12:57;3.17;;;1.40;;
20657;SDS011;10488;50.846;4.078;2023-07-24T02:15:23;2.03;;;1.38;;
20657;SDS011;10488;50.846;4.078;2023-07-24T02:17:48;2.22;;;1.45;;
20657;SDS011;10488;50.846;4.078;2023-07-24T02:20:14;3.40;;;1.63;;
20657;SDS011;10488;50.846;4.078;2023-07-24T02:22:39;2.22;;;1.50;;
20657;SDS011;10488;50.846;4.078;2023-07-24T02:25:05;2.83;;;1.52;;
20657;SDS011;10488;50.846;4.078;2023-07-24T02:27:31;3.65;;;1.48;;
20657;SDS011;10488;50.846;4.078;2023-07-24T02:29:59;2.20;;;1.58;;
20657;SDS011;10488;50.846;4.078;2023-07-24T02:32:25;2.80;;;1.67;;
20657;SDS011;10488;50.846;4.078;2023-07-24T02:34:51;1.60;;;1.27;;
20657;SDS011;10488;50.846;4.078;2023-07-24T02:37:18;2.25;;;1.67;;
20657;SDS011;10488;50.846;4.078;2023-07-24T02:39:44;1.75;;;1.45;;
20657;SDS011;10488;50.846;4.078;2023-07-24T02:42:10;2.13;;;1.63;;
20657;SDS011;10488;50.846;4.078;2023-07-24T02:44:35;3.83;;;1.42;;
20657;SDS011;10488;50.846;4.078;2023-07-24T02:47:01;1.75;;;1.58;;
20657;SDS011;10488;50.846;4.078;2023-07-24T02:49:27;3.88;;;1.58;;
20657;SDS011;10488;50.846;4.078;2023-07-24T02:51:53;3.08;;;1.75;;
20657;SDS011;10488;50.846;4.078;2023-07-24T02:54:19;3.20;;;1.60;;
20657;SDS011;10488;50.846;4.078;2023-07-24T02:56:44;4.15;;;1.90;;
20657;SDS011;10488;50.846;4.078;2023-07-24T02:59:10;2.90;;;2.20;;
20657;SDS011;10488;50.846;4.078;2023-07-24T03:01:36;2.72;;;2.05;;
20657;SDS011;10488;50.846;4.078;2023-07-24T03:04:02;2.40;;;1.80;;
20657;SDS011;10488;50.846;4.078;2023-07-24T03:06:28;2.15;;;1.65;;
20657;SDS011;10488;50.846;4.078;2023-07-24T03:08:53;2.03;;;1.85;;
20657;SDS011;10488;50.846;4.078;2023-07-24T03:11:19;2.45;;;1.95;;
20657;SDS011;10488;50.846;4.078;2023-07-24T03:13:45;2.38;;;1.70;;
20657;SDS011;10488;50.846;4.078;2023-07-24T03:16:10;3.30;;;2.05;;
20657;SDS011;10488;50.846;4.078;2023-07-24T03:18:36;3.45;;;2.10;;
20657;SDS011;10488;50.846;4.078;2023-07-24T03:21:02;2.38;;;1.77;;
20657;SDS011;10488;50.846;4.078;2023-07-24T03:23:28;2.47;;;1.90;;
20657;SDS011;10488;50.846;4.078;2023-07-24T03:25:54;2.65;;;1.83;;
20657;SDS011;10488;50.846;4.078;2023-07-24T03:28:19;3.63;;;2.13;;
20657;SDS011;10488;50.846;4.078;2023-07-24T03:30:45;3.33;;;2.13;;
20657;SDS011;10488;50.846;4.078;2023-07-24T03:33:11;2.08;;;1.60;;
20657;SDS011;10488;50.846;4.078;2023-07-24T03:35:37;3.67;;;2.10;;
20657;SDS011;10488;50.846;4.078;2023-07-24T03:38:04;1.85;;;1.63;;
20657;SDS011;10488;50.846;4.078;2023-07-24T03:40:30;3.05;;;1.70;;
20657;SDS011;10488;50.846;4.078;2023-07-24T03:42:55;1.98;;;1.75;;
20657;SDS011;10488;50.846;4.078;2023-07-24T03:45:21;1.98;;;1.77;;
20657;SDS011;10488;50.846;4.078;2023-07-24T03:47:47;1.70;;;1.30;;
20657;SDS011;10488;50.846;4.078;2023-07-24T03:50:12;1.73;;;1.58;;
20657;SDS011;10488;50.846;4.078;2023-07-24T03:52:38;2.00;;;1.60;;
20657;SDS011;10488;50.846;4.078;2023-07-24T03:55:04;2.20;;;1.70;;
20657;SDS011;10488;50.846;4.078;2023-07-24T03:57:30;1.70;;;1.58;;
20657;SDS011;10488;50.846;4.078;2023-07-24T03:59:55;3.30;;;1.63;;
20657;SDS011;10488;50.846;4.078;2023-07-24T04:02:21;1.40;;;1.30;;
20657;SDS011;10488;50.846;4.078;2023-07-24T04:04:47;2.78;;;1.38;;
20657;SDS011;10488;50.846;4.078;2023-07-24T04:07:13;4.00;;;1.50;;
20657;SDS011;10488;50.846;4.078;2023-07-24T04:09:38;1.40;;;1.30;;
20657;SDS011;10488;50.846;4.078;2023-07-24T04:12:04;2.25;;;1.70;;
20657;SDS011;10488;50.846;4.078;2023-07-24T04:14:30;1.40;;;1.30;;
20657;SDS011;10488;50.846;4.078;2023-07-24T04:16:56;2.00;;;1.40;;
20657;SDS011;10488;50.846;4.078;2023-07-24T04:19:21;2.67;;;1.20;;
20657;SDS011;10488;50.846;4.078;2023-07-24T04:21:47;4.70;;;1.30;;
20657;SDS011;10488;50.846;4.078;2023-07-24T04:24:13;2.03;;;1.83;;
20657;SDS011;10488;50.846;4.078;2023-07-24T04:26:38;1.48;;;1.38;;
20657;SDS011;10488;50.846;4.078;2023-07-24T04:29:05;2.25;;;1.52;;
20657;SDS011;10488;50.846;4.078;2023-07-24T04:31:31;2.47;;;1.45;;
20657;SDS011;10488;50.846;4.078;2023-07-24T04:33:56;1.70;;;1.60;;
20657;SDS011;10488;50.846;4.078;2023-07-24T04:36:22;3.30;;;1.48;;
20657;SDS011;10488;50.846;4.078;2023-07-24T04:38:48;1.85;;;1.40;;
20657;SDS011;10488;50.846;4.078;2023-07-24T04:41:13;2.15;;;1.33;;
20657;SDS011;10488;50.846;4.078;2023-07-24T04:43:39;3.05;;;1.92;;
20657;SDS011;10488;50.846;4.078;2023-07-24T04:46:05;2.75;;;1.30;;
20657;SDS011;10488;50.846;4.078;2023-07-24T04:48:30;2.40;;;1.98;;
20657;SDS011;10488;50.846;4.078;2023-07-24T04:50:56;1.70;;;1.60;;
20657;SDS011;10488;50.846;4.078;2023-07-24T04:53:22;3.17;;;1.42;;
20657;SDS011;10488;50.846;4.078;2023-07-24T04:55:48;2.92;;;1.52;;
20657;SDS011;10488;50.846;4.078;2023-07-24T04:58:14;2.05;;;1.60;;
20657;SDS011;10488;50.846;4.078;2023-07-24T05:00:40;2.90;;;1.50;;
20657;SDS011;10488;50.846;4.078;2023-07-24T05:03:05;1.60;;;1.50;;
20657;SDS011;10488;50.846;4.078;2023-07-24T05:05:34;2.60;;;1.50;;
20657;SDS011;10488;50.846;4.078;2023-07-24T05:07:59;2.75;;;1.63;;
20657;SDS011;10488;50.846;4.078;2023-07-24T05:10:25;1.80;;;1.42;;
20657;SDS011;10488;50.846;4.078;2023-07-24T05:12:50;2.17;;;1.98;;
20657;SDS011;10488;50.846;4.078;2023-07-24T05:15:16;1.40;;;1.30;;
20657;SDS011;10488;50.846;4.078;2023-07-24T05:17:42;1.90;;;1.48;;
20657;SDS011;10488;50.846;4.078;2023-07-24T05:20:09;3.75;;;1.70;;
20657;SDS011;10488;50.846;4.078;2023-07-24T05:22:35;3.45;;;1.90;;
20657;SDS011;10488;50.846;4.078;2023-07-24T05:25:00;2.97;;;1.80;;
20657;SDS011;10488;50.846;4.078;2023-07-24T05:27:26;1.67;;;1.58;;
20657;SDS011;10488;50.846;4.078;2023-07-24T05:29:52;4.03;;;1.92;;
20657;SDS011;10488;50.846;4.078;2023-07-24T05:32:17;3.75;;;1.90;;
20657;SDS011;10488;50.846;4.078;2023-07-24T05:34:43;4.10;;;1.70;;
20657;SDS011;10488;50.846;4.078;2023-07-24T05:37:08;2.92;;;1.75;;
20657;SDS011;10488;50.846;4.078;2023-07-24T05:39:34;7.63;;;2.00;;
20657;SDS011;10488;50.846;4.078;2023-07-24T05:42:00;3.75;;;1.88;;
20657;SDS011;10488;50.846;4.078;2023-07-24T05:44:26;1.90;;;1.75;;
20657;SDS011;10488;50.846;4.078;2023-07-24T05:46:51;3.53;;;2.05;;
20657;SDS011;10488;50.846;4.078;2023-07-24T05:49:17;2.25;;;1.73;;
20657;SDS011;10488;50.846;4.078;2023-07-24T05:51:42;1.92;;;1.73;;
20657;SDS011;10488;50.846;4.078;2023-07-24T05:54:08;3.78;;;2.47;;
20657;SDS011;10488;50.846;4.078;2023-07-24T05:56:35;3.63;;;2.22;;
20657;SDS011;10488;50.846;4.078;2023-07-24T05:59:00;4.22;;;2.45;;
20657;SDS011;10488;50.846;4.078;2023-07-24T06:01:26;4.38;;;2.38;;
20657;SDS011;10488;50.846;4.078;2023-07-24T06:03:52;4.10;;;2.40;;
20657;SDS011;10488;50.846;4.078;2023-07-24T06:06:17;2.67;;;2.25;;
20657;SDS011;10488;50.846;4.078;2023-07-24T06:08:44;3.35;;;2.40;;
20657;SDS011;10488;50.846;4.078;2023-07-24T06:11:10;2.50;;;2.17;;
20657;SDS011;10488;50.846;4.078;2023-07-24T06:13:35;3.50;;;2.50;;
20657;SDS011;10488;50.846;4.078;2023-07-24T06:16:01;3.15;;;2.40;;
20657;SDS011;10488;50.846;4.078;2023-07-24T06:18:27;7.30;;;3.15;;
20657;SDS011;10488;50.846;4.078;2023-07-24T06:20:53;4.55;;;2.38;;
20657;SDS011;10488;50.846;4.078;2023-07-24T06:23:19;6.45;;;2.80;;
20657;SDS011;10488;50.846;4.078;2023-07-24T06:25:44;6.30;;;2.70;;
20657;SDS011;10488;50.846;4.078;2023-07-24T06:28:10;4.18;;;2.72;;
20657;SDS011;10488;50.846;4.078;2023-07-24T06:30:37;5.60;;;2.22;;
20657;SDS011;10488;50.846;4.078;2023-07-24T06:33:04;3.88;;;2.20;;
20657;SDS011;10488;50.846;4.078;2023-07-24T06:35:29;6.28;;;2.78;;
20657;SDS011;10488;50.846;4.078;2023-07-24T06:37:55;3.08;;;2.47;;
20657;SDS011;10488;50.846;4.078;2023-07-24T06:40:21;4.28;;;3.22;;
20657;SDS011;10488;50.846;4.078;2023-07-24T06:42:47;5.57;;;2.80;;
20657;SDS011;10488;50.846;4.078;2023-07-24T06:45:12;6.45;;;2.83;;
20657;SDS011;10488;50.846;4.078;2023-07-24T06:47:38;3.65;;;2.42;;
20657;SDS011;10488;50.846;4.078;2023-07-24T06:50:04;3.65;;;2.83;;
20657;SDS011;10488;50.846;4.078;2023-07-24T06:52:31;3.25;;;2.28;;
20657;SDS011;10488;50.846;4.078;2023-07-24T06:54:57;2.25;;;2.05;;
20657;SDS011;10488;50.846;4.078;2023-07-24T06:57:23;4.40;;;2.30;;
20657;SDS011;10488;50.846;4.078;2023-07-24T06:59:49;6.95;;;2.55;;
20657;SDS011;10488;50.846;4.078;2023-07-24T07:02:15;3.35;;;2.38;;
20657;SDS011;10488;50.846;4.078;2023-07-24T07:04:40;4.45;;;2.25;;
20657;SDS011;10488;50.846;4.078;2023-07-24T07:07:06;3.20;;;2.00;;
20657;SDS011;10488;50.846;4.078;2023-07-24T07:09:32;6.20;;;2.35;;
20657;SDS011;10488;50.846;4.078;2023-07-24T07:11:57;3.70;;;2.17;;
20657;SDS011;10488;50.846;4.078;2023-07-24T07:14:24;4.05;;;2.17;;
20657;SDS011;10488;50.846;4.078;2023-07-24T07:16:49;2.83;;;1.80;;
20657;SDS011;10488;50.846;4.078;2023-07-24T07:19:15;4.03;;;2.08;;
20657;SDS011;10488;50.846;4.078;2023-07-24T07:21:41;4.05;;;2.10;;
20657;SDS011;10488;50.846;4.078;2023-07-24T07:24:06;4.88;;;2.15;;
20657;SDS011;10488;50.846;4.078;2023-07-24T07:26:32;4.05;;;2.20;;
20657;SDS011;10488;50.846;4.078;2023-07-24T07:28:58;2.53;;;1.98;;
20657;SDS011;10488;50.846;4.078;2023-07-24T07:31:24;2.53;;;2.22;;
20657;SDS011;10488;50.846;4.078;2023-07-24T07:33:50;4.15;;;2.47;;
20657;SDS011;10488;50.846;4.078;2023-07-24T07:36:16;6.78;;;2.15;;
20657;SDS011;10488;50.846;4.078;2023-07-24T07:38:42;4.18;;;2.28;;
20657;SDS011;10488;50.846;4.078;2023-07-24T07:41:08;4.93;;;2.22;;
20657;SDS011;10488;50.846;4.078;2023-07-24T07:43:34;3.97;;;2.45;;
20657;SDS011;10488;50.846;4.078;2023-07-24T07:46:01;2.97;;;2.60;;
20657;SDS011;10488;50.846;4.078;2023-07-24T07:48:27;4.18;;;2.70;;
20657;SDS011;10488;50.846;4.078;2023-07-24T07:50:53;3.55;;;2.42;;
20657;SDS011;10488;50.846;4.078;2023-07-24T07:53:19;2.85;;;2.22;;
20657;SDS011;10488;50.846;4.078;2023-07-24T07:55:45;6.28;;;2.33;;
20657;SDS011;10488;50.846;4.078;2023-07-24T07:58:10;3.58;;;2.30;;
20657;SDS011;10488;50.846;4.078;2023-07-24T08:00:36;1.88;;;1.75;;
20657;SDS011;10488;50.846;4.078;2023-07-24T08:03:06;3.25;;;2.40;;
20657;SDS011;10488;50.846;4.078;2023-07-24T08:05:31;3.58;;;2.47;;
20657;SDS011;10488;50.846;4.078;2023-07-24T08:07:57;4.15;;;2.42;;
20657;SDS011;10488;50.846;4.078;2023-07-24T08:10:23;3.22;;;2.15;;
20657;SDS011;10488;50.846;4.078;2023-07-24T08:12:49;2.92;;;2.47;;
20657;SDS011;10488;50.846;4.078;2023-07-24T08:15:14;4.90;;;2.92;;
20657;SDS011;10488;50.846;4.078;2023-07-24T08:17:40;3.30;;;2.58;;
20657;SDS011;10488;50.846;4.078;2023-07-24T08:20:06;3.35;;;2.17;;
20657;SDS011;10488;50.846;4.078;2023-07-24T08:22:32;2.58;;;2.00;;
20657;SDS011;10488;50.846;4.078;2023-07-24T08:24:57;5.47;;;2.25;;
20657;SDS011;10488;50.846;4.078;2023-07-24T08:27:23;2.05;;;1.63;;
20657;SDS011;10488;50.846;4.078;2023-07-24T08:29:51;2.75;;;2.22;;
20657;SDS011;10488;50.846;4.078;2023-07-24T08:32:20;1.90;;;1.70;;
20657;SDS011;10488;50.846;4.078;2023-07-24T08:34:45;7.30;;;2.35;;
20657;SDS011;10488;50.846;4.078;2023-07-24T08:37:11;4.68;;;2.78;;
20657;SDS011;10488;50.846;4.078;2023-07-24T08:39:37;2.72;;;2.33;;
20657;SDS011;10488;50.846;4.078;2023-07-24T08:42:13;3.22;;;2.28;;
20657;SDS011;10488;50.846;4.078;2023-07-24T08:44:39;2.58;;;2.00;;
20657;SDS011;10488;50.846;4.078;2023-07-24T08:47:06;3.00;;;1.77;;
20657;SDS011;10488;50.846;4.078;2023-07-24T08:49:35;5.15;;;2.47;;
20657;SDS011;10488;50.846;4.078;2023-07-24T08:52:07;8.30;;;2.38;;
20657;SDS011;10488;50.846;4.078;2023-07-24T08:54:35;2.63;;;1.67;;
20657;SDS011;10488;50.846;4.078;2023-07-24T08:57:02;3.97;;;2.65;;
20657;SDS011;10488;50.846;4.078;2023-07-24T08:59:30;2.75;;;2.10;;
20657;SDS011;10488;50.846;4.078;2023-07-24T09:01:56;3.38;;;1.80;;
20657;SDS011;10488;50.846;4.078;2023-07-24T09:04:22;2.40;;;2.15;;
20657;SDS011;10488;50.846;4.078;2023-07-24T09:06:48;3.45;;;1.95;;
20657;SDS011;10488;50.846;4.078;2023-07-24T09:09:15;2.85;;;1.90;;
20657;SDS011;10488;50.846;4.078;2023-07-24T09:11:51;3.38;;;2.05;;
20657;SDS011;10488;50.846;4.078;2023-07-24T09:14:21;3.20;;;2.03;;
20657;SDS011;10488;50.846;4.078;2023-07-24T09:17:10;3.17;;;1.90;;
20657;SDS011;10488;50.846;4.078;2023-07-24T09:19:36;2.67;;;1.52;;
20657;SDS011;10488;50.846;4.078;2023-07-24T09:24:35;4.18;;;1.65;;
20657;SDS011;10488;50.846;4.078;2023-07-24T09:27:04;5.07;;;2.10;;
20657;SDS011;10488;50.846;4.078;2023-07-24T09:29:32;2.45;;;1.88;;
20657;SDS011;10488;50.846;4.078;2023-07-24T09:31:58;2.75;;;1.83;;
20657;SDS011;10488;50.846;4.078;2023-07-24T09:34:25;2.42;;;2.13;;
20657;SDS011;10488;50.846;4.078;2023-07-24T09:36:51;4.70;;;2.28;;
20657;SDS011;10488;50.846;4.078;2023-07-24T09:39:22;3.15;;;2.28;;
20657;SDS011;10488;50.846;4.078;2023-07-24T09:41:49;4.55;;;2.20;;
20657;SDS011;10488;50.846;4.078;2023-07-24T09:44:15;4.03;;;1.77;;
20657;SDS011;10488;50.846;4.078;2023-07-24T09:46:41;2.15;;;1.70;;
20657;SDS011;10488;50.846;4.078;2023-07-24T09:49:08;2.42;;;2.03;;
20657;SDS011;10488;50.846;4.078;2023-07-24T09:51:35;2.45;;;2.05;;
20657;SDS011;10488;50.846;4.078;2023-07-24T09:56:39;3.30;;;2.22;;
20657;SDS011;10488;50.846;4.078;2023-07-24T09:59:06;3.28;;;1.70;;
20657;SDS011;10488;50.846;4.078;2023-07-24T10:01:32;3.20;;;1.95;;
20657;SDS011;10488;50.846;4.078;2023-07-24T10:03:58;2.85;;;1.42;;
20657;SDS011;10488;50.846;4.078;2023-07-24T10:06:24;4.00;;;1.85;;
20657;SDS011;10488;50.846;4.078;2023-07-24T10:08:52;5.90;;;2.25;;
20657;SDS011;10488;50.846;4.078;2023-07-24T10:11:18;4.70;;;2.22;;
20657;SDS011;10488;50.846;4.078;2023-07-24T10:13:45;4.90;;;2.30;;
20657;SDS011;10488;50.846;4.078;2023-07-24T10:16:11;4.45;;;2.10;;
20657;SDS011;10488;50.846;4.078;2023-07-24T10:18:44;4.75;;;2.22;;
20657;SDS011;10488;50.846;4.078;2023-07-24T10:21:10;3.08;;;2.28;;
20657;SDS011;10488;50.846;4.078;2023-07-24T10:23:37;4.93;;;2.20;;
20657;SDS011;10488;50.846;4.078;2023-07-24T10:26:07;6.28;;;3.15;;
20657;SDS011;10488;50.846;4.078;2023-07-24T10:28:34;4.85;;;3.03;;
20657;SDS011;10488;50.846;4.078;2023-07-24T10:31:04;3.80;;;3.03;;
20657;SDS011;10488;50.846;4.078;2023-07-24T10:33:43;3.78;;;2.70;;
20657;SDS011;10488;50.846;4.078;2023-07-24T10:36:10;3.70;;;2.80;;
20657;SDS011;10488;50.846;4.078;2023-07-24T10:38:39;4.38;;;2.83;;
20657;SDS011;10488;50.846;4.078;2023-07-24T10:41:06;3.45;;;2.85;;
20657;SDS011;10488;50.846;4.078;2023-07-24T10:43:40;6.88;;;2.45;;
20657;SDS011;10488;50.846;4.078;2023-07-24T10:46:10;4.53;;;2.47;;
20657;SDS011;10488;50.846;4.078;2023-07-24T10:48:36;3.70;;;2.95;;
20657;SDS011;10488;50.846;4.078;2023-07-24T10:51:06;3.65;;;2.47;;
20657;SDS011;10488;50.846;4.078;2023-07-24T10:53:36;3.75;;;2.40;;
20657;SDS011;10488;50.846;4.078;2023-07-24T10:56:03;2.55;;;2.35;;
20657;SDS011;10488;50.846;4.078;2023-07-24T10:58:32;4.57;;;2.90;;
20657;SDS011;10488;50.846;4.078;2023-07-24T11:00:57;3.33;;;2.47;;
20657;SDS011;10488;50.846;4.078;2023-07-24T11:03:24;4.53;;;2.55;;
20657;SDS011;10488;50.846;4.078;2023-07-24T11:05:51;5.10;;;2.92;;
20657;SDS011;10488;50.846;4.078;2023-07-24T11:08:17;3.75;;;2.38;;
20657;SDS011;10488;50.846;4.078;2023-07-24T11:10:54;7.07;;;2.80;;
20657;SDS011;10488;50.846;4.078;2023-07-24T11:13:23;6.20;;;3.25;;
20657;SDS011;10488;50.846;4.078;2023-07-24T11:15:50;3.63;;;2.63;;
20657;SDS011;10488;50.846;4.078;2023-07-24T11:18:17;6.63;;;2.80;;
20657;SDS011;10488;50.846;4.078;2023-07-24T11:20:50;5.55;;;2.30;;
20657;SDS011;10488;50.846;4.078;2023-07-24T11:23:20;4.18;;;3.00;;
20657;SDS011;10488;50.846;4.078;2023-07-24T11:25:45;4.65;;;2.95;;
20657;SDS011;10488;50.846;4.078;2023-07-24T11:28:13;2.85;;;2.42;;
20657;SDS011;10488;50.846;4.078;2023-07-24T11:30:39;3.28;;;2.13;;
20657;SDS011;10488;50.846;4.078;2023-07-24T11:33:06;7.82;;;2.72;;
20657;SDS011;10488;50.846;4.078;2023-07-24T11:35:34;4.05;;;2.72;;
20657;SDS011;10488;50.846;4.078;2023-07-24T11:38:00;4.15;;;2.90;;
20657;SDS011;10488;50.846;4.078;2023-07-24T11:43:22;4.15;;;2.72;;
20657;SDS011;10488;50.846;4.078;2023-07-24T11:45:49;6.13;;;2.28;;
20657;SDS011;10488;50.846;4.078;2023-07-24T11:48:22;3.75;;;2.28;;
20657;SDS011;10488;50.846;4.078;2023-07-24T11:50:53;2.67;;;1.80;;
20657;SDS011;10488;50.846;4.078;2023-07-24T11:55:54;3.83;;;2.65;;
20657;SDS011;10488;50.846;4.078;2023-07-24T11:58:21;4.13;;;2.40;;
20657;SDS011;10488;50.846;4.078;2023-07-24T12:00:48;3.30;;;2.33;;
20657;SDS011;10488;50.846;4.078;2023-07-24T12:03:21;3.45;;;2.17;;
20657;SDS011;10488;50.846;4.078;2023-07-24T12:05:50;3.38;;;2.38;;
20657;SDS011;10488;50.846;4.078;2023-07-24T12:08:17;3.25;;;2.28;;
20657;SDS011;10488;50.846;4.078;2023-07-24T12:10:45;2.20;;;2.00;;
20657;SDS011;10488;50.846;4.078;2023-07-24T12:13:10;3.28;;;2.50;;
20657;SDS011;10488;50.846;4.078;2023-07-24T12:15:36;3.20;;;2.08;;
20657;SDS011;10488;50.846;4.078;2023-07-24T12:18:03;5.63;;;2.72;;
20657;SDS011;10488;50.846;4.078;2023-07-24T12:20:30;4.63;;;1.80;;
20657;SDS011;10488;50.846;4.078;2023-07-24T12:22:56;6.25;;;2.58;;
20657;SDS011;10488;50.846;4.078;2023-07-24T12:25:22;3.30;;;2.30;;
20657;SDS011;10488;50.846;4.078;2023-07-24T12:27:48;4.20;;;2.33;;
20657;SDS011;10488;50.846;4.078;2023-07-24T12:30:14;3.35;;;2.38;;
20657;SDS011;10488;50.846;4.078;2023-07-24T12:32:40;4.10;;;2.35;;
20657;SDS011;10488;50.846;4.078;2023-07-24T12:35:07;6.50;;;2.38;;
20657;SDS011;10488;50.846;4.078;2023-07-24T12:37:33;3.72;;;2.70;;
20657;SDS011;10488;50.846;4.078;2023-07-24T12:39:59;4.78;;;2.33;;
20657;SDS011;10488;50.846;4.078;2023-07-24T12:42:24;5.90;;;2.90;;
20657;SDS011;10488;50.846;4.078;2023-07-24T12:44:51;3.40;;;2.38;;
20657;SDS011;10488;50.846;4.078;2023-07-24T12:47:17;4.22;;;2.88;;
20657;SDS011;10488;50.846;4.078;2023-07-24T12:49:42;3.63;;;2.47;;
20657;SDS011;10488;50.846;4.078;2023-07-24T12:52:08;5.82;;;2.72;;
20657;SDS011;10488;50.846;4.078;2023-07-24T12:54:34;5.47;;;3.08;;
20657;SDS011;10488;50.846;4.078;2023-07-24T12:57:00;5.15;;;2.55;;
20657;SDS011;10488;50.846;4.078;2023-07-24T12:59:27;4.10;;;2.90;;
20657;SDS011;10488;50.846;4.078;2023-07-24T13:01:53;4.15;;;2.42;;
20657;SDS011;10488;50.846;4.078;2023-07-24T13:04:19;4.43;;;3.60;;
20657;SDS011;10488;50.846;4.078;2023-07-24T13:06:45;6.15;;;3.35;;
20657;SDS011;10488;50.846;4.078;2023-07-24T13:09:11;4.00;;;2.92;;
20657;SDS011;10488;50.846;4.078;2023-07-24T13:11:36;3.33;;;2.67;;
20657;SDS011;10488;50.846;4.078;2023-07-24T13:14:02;5.53;;;3.20;;
20657;SDS011;10488;50.846;4.078;2023-07-24T13:16:27;6.28;;;3.60;;
20657;SDS011;10488;50.846;4.078;2023-07-24T13:18:53;4.22;;;3.03;;
20657;SDS011;10488;50.846;4.078;2023-07-24T13:21:19;5.57;;;2.80;;
20657;SDS011;10488;50.846;4.078;2023-07-24T13:23:44;4.10;;;2.55;;
20657;SDS011;10488;50.846;4.078;2023-07-24T13:26:11;5.13;;;2.35;;
20657;SDS011;10488;50.846;4.078;2023-07-24T13:28:38;5.10;;;2.00;;
20657;SDS011;10488;50.846;4.078;2023-07-24T13:31:20;5.10;;;2.10;;
20657;SDS011;10488;50.846;4.078;2023-07-24T13:33:47;12.27;;;2.50;;
20657;SDS011;10488;50.846;4.078;2023-07-24T13:36:13;3.28;;;2.35;;
20657;SDS011;10488;50.846;4.078;2023-07-24T13:38:39;4.90;;;2.88;;
20657;SDS011;10488;50.846;4.078;2023-07-24T13:41:06;3.92;;;2.65;;
20657;SDS011;10488;50.846;4.078;2023-07-24T13:43:32;6.40;;;2.72;;
20657;SDS011;10488;50.846;4.078;2023-07-24T13:45:58;3.97;;;2.50;;
20657;SDS011;10488;50.846;4.078;2023-07-24T13:48:24;3.72;;;2.40;;
20657;SDS011;10488;50.846;4.078;2023-07-24T13:50:52;2.65;;;2.42;;
20657;SDS011;10488;50.846;4.078;2023-07-24T13:53:17;3.63;;;2.97;;
20657;SDS011;10488;50.846;4.078;2023-07-24T13:55:43;4.38;;;2.53;;
20657;SDS011;10488;50.846;4.078;2023-07-24T13:58:08;7.50;;;2.83;;
20657;SDS011;10488;50.846;4.078;2023-07-24T14:00:34;3.65;;;2.38;;
20657;SDS011;10488;50.846;4.078;2023-07-24T14:03:00;2.88;;;2.05;;
20657;SDS011;10488;50.846;4.078;2023-07-24T14:05:25;3.88;;;2.50;;
20657;SDS011;10488;50.846;4.078;2023-07-24T14:07:51;6.60;;;3.08;;
20657;SDS011;10488;50.846;4.078;2023-07-24T14:10:17;4.53;;;2.70;;
20657;SDS011;10488;50.846;4.078;2023-07-24T14:12:42;3.88;;;2.13;;
20657;SDS011;10488;50.846;4.078;2023-07-24T14:15:08;4.35;;;2.67;;
20657;SDS011;10488;50.846;4.078;2023-07-24T14:17:34;4.40;;;2.38;;
20657;SDS011;10488;50.846;4.078;2023-07-24T14:20:00;3.55;;;2.33;;
20657;SDS011;10488;50.846;4.078;2023-07-24T14:22:27;4.55;;;2.38;;
20657;SDS011;10488;50.846;4.078;2023-07-24T14:24:52;2.50;;;1.70;;
20657;SDS011;10488;50.846;4.078;2023-07-24T14:27:18;2.58;;;1.75;;
20657;SDS011;10488;50.846;4.078;2023-07-24T14:29:44;3.58;;;1.98;;
20657;SDS011;10488;50.846;4.078;2023-07-24T14:32:10;2.25;;;1.85;;
20657;SDS011;10488;50.846;4.078;2023-07-24T14:34:35;3.30;;;1.52;;
20657;SDS011;10488;50.846;4.078;2023-07-24T14:37:01;4.85;;;2.40;;
20657;SDS011;10488;50.846;4.078;2023-07-24T14:39:27;4.47;;;2.28;;
20657;SDS011;10488;50.846;4.078;2023-07-24T14:41:53;3.95;;;2.28;;
20657;SDS011;10488;50.846;4.078;2023-07-24T14:44:18;4.07;;;2.25;;
20657;SDS011;10488;50.846;4.078;2023-07-24T14:46:44;7.07;;;3.33;;
20657;SDS011;10488;50.846;4.078;2023-07-24T14:49:09;6.95;;;2.75;;
20657;SDS011;10488;50.846;4.078;2023-07-24T14:51:35;4.47;;;3.05;;
20657;SDS011;10488;50.846;4.078;2023-07-24T14:54:01;6.72;;;4.05;;